YCEM weather

Coldstream Airport
Coldstream, Victoria, Australia

Public forecast

Using degrees Celsius for public forecast. Weather courtesy of forecast.io.

METAR (pilot weather report)

Closest report is Melbourne Essendon Airport, 24.0 nm (44.5 km) W. Retrieved 2018/12/11 20:00 UTC (2 hours ago):

YMEN 112000Z AUTO 06003KT 9999 // NCD 16/16 Q1010

TAF (pilot weather forecast)

Forecast is more than 6 hours old.

Closest forecast is Melbourne International Airport, 27.1 nm (50.1 km) W. Retrieved 2018/12/11 12:00 UTC (10 hours ago):

TAF YMML 111128Z 1112/1218 VRB05KT CAVOK BECMG 1120/1122 36018G28KT CAVOK FM120400 01014KT CAVOK FM121000 05007KT CAVOK BECMG 1215/1217 01013KT CAVOK PROB30 INTER 1204/1209 VRB25G40KT 2000 TSRA BKN020 SCT060CB